Time;durP1;ratioP1;P1;durP2;ratioP2;P2;SDS_P1;SDS_P2;PMS_P1;PMS_P2;Temp;Humidity;BMP_temperature;BMP_pressure;BME280_temperature;BME280_humidity;BME280_pressure;Samples;Min_cycle;Max_cycle;Signal;HPM_P1;HPM_P2
2022/09/04 00:02:33;;;;;;;7.35;4.25;;;;;;;;;;5053637;28;20502;-72
2022/09/04 00:05:20;;;;;;;6.55;4.07;;;;;;;;;;5053352;28;20029;-72
2022/09/04 00:08:01;;;;;;;7.68;4.32;;;;;;;;;;5048210;28;20021;-72
2022/09/04 00:10:46;;;;;;;8.50;4.25;;;;;;;;;;5049349;28;20025;-72
2022/09/04 00:13:12;;;;;;;12.63;4.50;;;;;;;;;;5049809;28;20379;-72
2022/09/04 00:15:43;;;;;;;6.22;4.22;;;;;;;;;;5042221;28;20013;-72
2022/09/04 00:18:10;;;;;;;7.10;4.20;;;;;;;;;;5042436;28;20028;-72
2022/09/04 00:20:47;;;;;;;6.95;4.38;;;;;;;;;;5053628;28;20025;-72
2022/09/04 00:23:26;;;;;;;10.32;4.72;;;;;;;;;;5049854;28;20570;-72
2022/09/04 00:26:04;;;;;;;5.85;4.30;;;;;;;;;;5049397;28;20013;-72
2022/09/04 00:28:44;;;;;;;7.68;4.93;;;;;;;;;;5052319;28;20399;-72
2022/09/04 00:31:30;;;;;;;6.88;4.97;;;;;;;;;;5051581;28;20023;-71
2022/09/04 00:34:17;;;;;;;8.90;4.70;;;;;;;;;;5053256;28;20098;-71
2022/09/04 00:36:45;;;;;;;8.93;4.35;;;;;;;;;;5045897;28;20487;-71
2022/09/04 00:39:13;;;;;;;6.82;4.78;;;;;;;;;;5049647;28;20402;-71
2022/09/04 00:41:55;;;;;;;10.00;4.80;;;;;;;;;;5052927;28;20021;-72
2022/09/04 00:44:40;;;;;;;6.55;3.95;;;;;;;;;;5052552;28;20024;-71
2022/09/04 00:47:09;;;;;;;8.30;4.32;;;;;;;;;;5052143;28;20021;-70
2022/09/04 00:49:59;;;;;;;8.63;4.40;;;;;;;;;;5052595;28;20096;-71
2022/09/04 00:52:43;;;;;;;8.83;4.33;;;;;;;;;;5025074;28;20037;-71
2022/09/04 00:55:09;;;;;;;4.40;3.78;;;;;;;;;;5051251;28;20093;-71
2022/09/04 00:57:51;;;;;;;6.10;4.22;;;;;;;;;;5050469;28;20686;-72
2022/09/04 01:00:19;;;;;;;9.57;4.88;;;;;;;;;;5052355;28;20380;-71
2022/09/04 01:02:48;;;;;;;7.03;4.70;;;;;;;;;;5052470;28;20017;-71
2022/09/04 01:05:24;;;;;;;7.18;4.45;;;;;;;;;;5050284;28;20017;-72
2022/09/04 01:07:59;;;;;;;10.60;4.50;;;;;;;;;;5047738;28;20498;-72
2022/09/04 01:10:34;;;;;;;8.82;4.60;;;;;;;;;;5048146;28;20014;-72
2022/09/04 01:13:08;;;;;;;7.72;4.47;;;;;;;;;;5041296;28;20032;-72
2022/09/04 01:15:37;;;;;;;5.80;4.18;;;;;;;;;;5045493;28;20024;-72
2022/09/04 01:18:14;;;;;;;8.05;4.90;;;;;;;;;;5040187;28;20025;-72
2022/09/04 01:20:47;;;;;;;6.60;4.28;;;;;;;;;;5052077;28;20070;-70
2022/09/04 01:23:19;;;;;;;6.18;4.28;;;;;;;;;;5051933;28;20021;-70
2022/09/04 01:25:55;;;;;;;8.85;5.10;;;;;;;;;;5051981;28;20082;-71
2022/09/04 01:28:27;;;;;;;6.85;4.55;;;;;;;;;;5049884;28;20036;-72
2022/09/04 01:31:12;;;;;;;7.32;4.68;;;;;;;;;;5052204;28;20465;-71
2022/09/04 01:34:02;;;;;;;7.20;4.78;;;;;;;;;;5038075;28;20025;-71
2022/09/04 01:36:47;;;;;;;5.70;4.32;;;;;;;;;;5043815;28;20013;-71
2022/09/04 01:39:13;;;;;;;8.20;4.65;;;;;;;;;;5046251;28;20409;-71
2022/09/04 01:41:43;;;;;;;8.18;4.45;;;;;;;;;;5051995;28;20027;-71
2022/09/04 01:44:09;;;;;;;7.93;4.80;;;;;;;;;;5051673;28;20104;-71
2022/09/04 01:46:35;;;;;;;6.22;4.47;;;;;;;;;;5051926;28;20494;-71
2022/09/04 01:49:20;;;;;;;8.82;4.32;;;;;;;;;;5050648;28;20020;-71
2022/09/04 01:51:59;;;;;;;6.38;4.22;;;;;;;;;;5051638;28;20040;-71
2022/09/04 01:54:25;;;;;;;7.32;4.38;;;;;;;;;;5051241;28;20394;-71
2022/09/04 01:56:54;;;;;;;8.52;4.40;;;;;;;;;;5051581;28;20028;-71
2022/09/04 01:59:25;;;;;;;7.15;4.30;;;;;;;;;;5049131;28;20513;-71
2022/09/04 02:01:51;;;;;;;8.43;4.72;;;;;;;;;;5051538;28;20067;-71
2022/09/04 02:04:25;;;;;;;9.57;4.97;;;;;;;;;;5051399;28;20033;-71
2022/09/04 02:06:54;;;;;;;5.50;4.13;;;;;;;;;;5046374;28;20035;-71
2022/09/04 02:09:20;;;;;;;7.00;4.38;;;;;;;;;;5048036;28;20108;-71
2022/09/04 02:11:50;;;;;;;7.05;4.78;;;;;;;;;;5039640;28;20029;-71
2022/09/04 02:14:26;;;;;;;6.85;4.10;;;;;;;;;;5046148;28;20462;-71
2022/09/04 02:17:01;;;;;;;8.90;4.60;;;;;;;;;;5045051;28;20104;-72
2022/09/04 02:19:47;;;;;;;8.07;4.15;;;;;;;;;;5048386;28;20025;-71
2022/09/04 02:22:35;;;;;;;8.57;4.53;;;;;;;;;;5050932;28;20021;-70
2022/09/04 02:25:01;;;;;;;4.93;4.10;;;;;;;;;;5047462;28;20368;-70
2022/09/04 02:27:30;;;;;;;5.05;3.95;;;;;;;;;;5042927;28;20088;-71
2022/09/04 02:29:59;;;;;;;5.93;4.50;;;;;;;;;;5050995;28;20399;-71
2022/09/04 02:32:28;;;;;;;5.97;4.38;;;;;;;;;;5050987;28;20029;-71
2022/09/04 02:35:03;;;;;;;6.20;4.50;;;;;;;;;;5051264;28;20112;-71
2022/09/04 02:37:36;;;;;;;6.82;4.10;;;;;;;;;;5043394;28;20021;-72
2022/09/04 02:40:02;;;;;;;6.75;5.07;;;;;;;;;;5049554;28;20372;-71
2022/09/04 02:42:51;;;;;;;8.27;4.30;;;;;;;;;;5049552;28;20021;-71
2022/09/04 02:45:28;;;;;;;7.07;4.13;;;;;;;;;;5012486;28;20079;-71
2022/09/04 02:48:00;;;;;;;7.22;4.38;;;;;;;;;;5046613;28;20471;-71
2022/09/04 02:50:46;;;;;;;5.97;3.88;;;;;;;;;;5050863;28;20033;-72
2022/09/04 02:53:30;;;;;;;6.25;4.60;;;;;;;;;;5047334;28;20341;-71
2022/09/04 02:56:08;;;;;;;7.20;4.70;;;;;;;;;;5047845;28;20998;-71
2022/09/04 02:58:45;;;;;;;6.53;4.78;;;;;;;;;;5050259;28;20295;-71
2022/09/04 03:01:21;;;;;;;6.03;4.20;;;;;;;;;;5050739;28;20017;-72
2022/09/04 03:04:01;;;;;;;5.40;4.32;;;;;;;;;;5049870;28;20033;-72
2022/09/04 03:06:47;;;;;;;6.43;4.50;;;;;;;;;;5040392;28;20498;-72
2022/09/04 03:09:35;;;;;;;8.88;4.78;;;;;;;;;;5049401;28;20060;-71
2022/09/04 03:12:25;;;;;;;6.68;4.55;;;;;;;;;;5036351;28;20032;-71
2022/09/04 03:14:58;;;;;;;5.80;4.13;;;;;;;;;;5037915;28;20147;-71
2022/09/04 03:17:33;;;;;;;5.60;4.50;;;;;;;;;;5048052;28;20035;-72
2022/09/04 03:20:03;;;;;;;5.65;4.05;;;;;;;;;;5050184;28;20025;-71
2022/09/04 03:22:47;;;;;;;5.95;4.55;;;;;;;;;;5050309;28;20025;-72
2022/09/04 03:25:33;;;;;;;5.18;4.38;;;;;;;;;;5050433;28;20037;-72
2022/09/04 03:28:00;;;;;;;7.43;4.57;;;;;;;;;;5038973;28;20374;-72
2022/09/04 03:30:27;;;;;;;6.95;4.93;;;;;;;;;;5049087;28;20131;-71
2022/09/04 03:35:30;;;;;;;7.03;4.60;;;;;;;;;;5081094;22;20102;-71
2022/09/04 03:37:59;;;;;;;8.45;4.72;;;;;;;;;;5066222;28;20028;-70
2022/09/04 03:40:41;;;;;;;8.77;4.20;;;;;;;;;;5069629;28;20036;-70
2022/09/04 03:43:26;;;;;;;7.70;4.80;;;;;;;;;;5061408;28;20045;-70
2022/09/04 03:46:01;;;;;;;8.25;4.50;;;;;;;;;;5061553;28;20031;-70
2022/09/04 03:48:39;;;;;;;7.68;4.53;;;;;;;;;;5050667;28;20029;-71
2022/09/04 03:51:24;;;;;;;5.88;4.40;;;;;;;;;;5063778;28;20045;-71
2022/09/04 03:53:50;;;;;;;6.38;4.28;;;;;;;;;;5063928;28;20544;-68
2022/09/04 03:56:16;;;;;;;7.93;4.57;;;;;;;;;;5054489;28;20025;-69
2022/09/04 03:59:03;;;;;;;6.65;4.55;;;;;;;;;;5054943;28;20497;-70
2022/09/04 04:01:52;;;;;;;5.63;4.28;;;;;;;;;;5052357;28;20020;-70
2022/09/04 04:04:24;;;;;;;8.48;4.45;;;;;;;;;;5055833;28;20545;-69
2022/09/04 04:07:04;;;;;;;6.82;4.40;;;;;;;;;;5066093;28;20078;-68
2022/09/04 04:09:33;;;;;;;6.95;4.60;;;;;;;;;;5070622;28;20128;-69
2022/09/04 04:12:17;;;;;;;6.15;4.57;;;;;;;;;;5059283;28;20114;-68
2022/09/04 04:15:07;;;;;;;5.65;4.47;;;;;;;;;;5065963;28;20108;-71
2022/09/04 04:17:43;;;;;;;7.57;4.30;;;;;;;;;;5058939;28;20024;-69
2022/09/04 04:20:09;;;;;;;6.07;4.45;;;;;;;;;;5061279;28;20036;-71
2022/09/04 04:22:38;;;;;;;5.88;4.38;;;;;;;;;;5067604;28;20471;-68
2022/09/04 04:25:04;;;;;;;7.15;4.70;;;;;;;;;;5061111;28;20503;-69
2022/09/04 04:27:32;;;;;;;10.65;4.70;;;;;;;;;;5059152;28;20024;-68
2022/09/04 04:30:01;;;;;;;8.57;4.63;;;;;;;;;;5066825;28;20028;-70
2022/09/04 04:32:33;;;;;;;8.68;4.55;;;;;;;;;;5068398;28;20020;-71
2022/09/04 04:35:07;;;;;;;6.35;4.32;;;;;;;;;;5060329;28;20462;-69
2022/09/04 04:37:42;;;;;;;7.88;4.95;;;;;;;;;;5063695;28;20053;-69
2022/09/04 04:40:34;;;;;;;6.55;4.60;;;;;;;;;;5062040;28;20047;-70
2022/09/04 04:43:00;;;;;;;20.48;12.50;;;;;;;;;;5040110;28;20045;-70
2022/09/04 04:45:51;;;;;;;52.97;26.58;;;;;;;;;;5064249;28;20021;-69
2022/09/04 04:48:17;;;;;;;307.40;150.82;;;;;;;;;;5061141;28;20052;-68
2022/09/04 04:51:04;;;;;;;23.98;12.25;;;;;;;;;;5070346;28;20131;-70
2022/09/04 04:53:49;;;;;;;32.72;15.55;;;;;;;;;;5057228;28;20083;-68
2022/09/04 04:56:22;;;;;;;18.55;8.82;;;;;;;;;;5056402;28;20025;-68
2022/09/04 04:59:06;;;;;;;44.67;20.25;;;;;;;;;;5058461;28;20541;-69
2022/09/04 05:01:41;;;;;;;39.97;19.05;;;;;;;;;;5056663;28;20020;-71
2022/09/04 05:04:07;;;;;;;39.63;20.17;;;;;;;;;;5065189;28;20012;-71
2022/09/04 05:06:39;;;;;;;205.75;100.80;;;;;;;;;;5062540;28;20027;-70
2022/09/04 05:09:12;;;;;;;35.13;17.25;;;;;;;;;;5054826;28;20693;-71
2022/09/04 05:11:41;;;;;;;8.98;4.78;;;;;;;;;;5059955;28;20044;-71
2022/09/04 05:14:16;;;;;;;5.30;4.03;;;;;;;;;;5058493;28;20111;-70
2022/09/04 05:16:54;;;;;;;12.02;6.93;;;;;;;;;;5059678;28;20016;-70
2022/09/04 05:19:23;;;;;;;10.90;5.90;;;;;;;;;;5054717;28;20025;-70
2022/09/04 05:21:52;;;;;;;122.80;72.57;;;;;;;;;;5067582;28;20055;-71
2022/09/04 05:24:24;;;;;;;89.60;45.60;;;;;;;;;;5062940;28;21358;-72
2022/09/04 05:26:59;;;;;;;7.63;5.30;;;;;;;;;;5057393;28;20135;-71
2022/09/04 05:29:25;;;;;;;10.35;6.03;;;;;;;;;;5062650;28;20036;-71
2022/09/04 05:31:54;;;;;;;7.68;3.85;;;;;;;;;;5068715;28;20012;-71
2022/09/04 05:34:20;;;;;;;5.88;3.53;;;;;;;;;;5062512;28;20487;-70
2022/09/04 05:36:46;;;;;;;4.50;3.08;;;;;;;;;;5056946;28;20036;-70
2022/09/04 05:39:19;;;;;;;4.57;3.03;;;;;;;;;;5054287;28;20025;-69
2022/09/04 05:41:45;;;;;;;7.53;3.92;;;;;;;;;;5068783;28;20023;-69
2022/09/04 05:44:19;;;;;;;4.45;3.38;;;;;;;;;;5062455;28;20024;-70
2022/09/04 05:47:12;;;;;;;6.70;3.55;;;;;;;;;;5056770;28;20033;-70
2022/09/04 05:49:59;;;;;;;6.40;3.47;;;;;;;;;;5028660;28;20119;-70
2022/09/04 05:52:31;;;;;;;7.10;3.45;;;;;;;;;;5062200;28;20367;-70
2022/09/04 05:55:11;;;;;;;4.82;3.30;;;;;;;;;;5059235;28;20047;-70
2022/09/04 05:57:56;;;;;;;8.32;3.65;;;;;;;;;;5062299;28;20029;-70
2022/09/04 06:00:22;;;;;;;5.95;3.42;;;;;;;;;;5068088;28;20498;-71
2022/09/04 06:03:06;;;;;;;5.30;3.03;;;;;;;;;;5063618;28;20430;-68
2022/09/04 06:05:32;;;;;;;6.10;3.38;;;;;;;;;;5061905;28;20028;-69
2022/09/04 06:08:01;;;;;;;7.97;3.95;;;;;;;;;;5053756;28;20024;-71
2022/09/04 06:10:35;;;;;;;5.63;4.35;;;;;;;;;;5058589;28;20398;-70
2022/09/04 06:13:07;;;;;;;4.72;3.50;;;;;;;;;;5055062;28;20033;-71
2022/09/04 06:15:42;;;;;;;5.90;3.50;;;;;;;;;;5064357;28;20024;-69
2022/09/04 06:18:08;;;;;;;5.80;3.95;;;;;;;;;;5059475;28;20024;-71
2022/09/04 06:20:49;;;;;;;5.32;3.55;;;;;;;;;;5069293;28;20028;-70
2022/09/04 06:23:15;;;;;;;;;;;;;;;;;;5067667;28;20029;-70
2022/09/04 06:25:53;;;;;;;3.78;3.22;;;;;;;;;;5055968;28;19904;-68
2022/09/04 06:28:22;;;;;;;4.88;3.53;;;;;;;;;;5053085;28;20021;-69
2022/09/04 06:30:53;;;;;;;4.43;3.17;;;;;;;;;;5069086;28;20021;-69
2022/09/04 06:33:25;;;;;;;5.97;3.83;;;;;;;;;;5063356;28;20383;-68
2022/09/04 06:36:10;;;;;;;6.35;3.70;;;;;;;;;;5060267;28;20031;-69
2022/09/04 06:38:45;;;;;;;3.88;3.40;;;;;;;;;;5052567;28;20033;-68
2022/09/04 06:41:14;;;;;;;5.47;3.50;;;;;;;;;;5065116;28;20017;-71
2022/09/04 06:43:46;;;;;;;6.20;4.03;;;;;;;;;;5065037;28;20016;-69
2022/09/04 06:46:15;;;;;;;7.93;3.08;;;;;;;;;;5057247;28;20020;-69
2022/09/04 06:48:44;;;;;;;4.50;3.40;;;;;;;;;;5052046;28;20025;-70
2022/09/04 06:51:29;;;;;;;6.57;3.63;;;;;;;;;;5064838;28;20029;-70
2022/09/04 06:54:01;;;;;;;6.93;3.50;;;;;;;;;;5064517;28;20494;-70
2022/09/04 06:56:46;;;;;;;4.80;3.10;;;;;;;;;;5062616;28;20113;-70
2022/09/04 06:59:35;;;;;;;5.00;3.40;;;;;;;;;;5058450;28;20028;-70
2022/09/04 07:02:17;;;;;;;9.27;3.97;;;;;;;;;;5059333;28;20041;-71
2022/09/04 07:05:21;;;;;;;3.22;2.75;;;;;;;;;;5056749;28;20096;-69
2022/09/04 07:07:57;;;;;;;4.85;3.40;;;;;;;;;;5005392;28;20014;-69
2022/09/04 07:10:43;;;;;;;7.97;3.55;;;;;;;;;;5008781;28;20022;-70
2022/09/04 07:13:28;;;;;;;60.05;27.15;;;;;;;;;;5040349;28;20033;-70
2022/09/04 07:16:05;;;;;;;6.55;3.58;;;;;;;;;;5052546;28;20056;-70
2022/09/04 07:18:31;;;;;;;4.00;3.15;;;;;;;;;;5057921;28;20112;-71
2022/09/04 07:21:14;;;;;;;8.30;3.15;;;;;;;;;;5063333;28;20083;-72
2022/09/04 07:23:54;;;;;;;6.35;3.63;;;;;;;;;;5056372;28;20405;-70
2022/09/04 07:26:20;;;;;;;5.75;3.17;;;;;;;;;;5055561;28;20025;-68
2022/09/04 07:28:52;;;;;;;11.30;3.25;;;;;;;;;;5056201;28;20019;-68
2022/09/04 07:31:21;;;;;;;6.28;2.78;;;;;;;;;;5066208;28;20031;-70
2022/09/04 07:34:08;;;;;;;3.15;2.80;;;;;;;;;;5064030;28;20091;-70
2022/09/04 07:36:39;;;;;;;9.00;3.22;;;;;;;;;;5062389;28;20012;-70
2022/09/04 07:39:11;;;;;;;3.97;3.15;;;;;;;;;;5056412;28;20036;-71
2022/09/04 07:41:48;;;;;;;4.78;3.42;;;;;;;;;;5070952;28;20027;-68
2022/09/04 07:44:33;;;;;;;5.03;3.30;;;;;;;;;;5065919;28;20028;-70
2022/09/04 07:47:12;;;;;;;4.53;3.78;;;;;;;;;;5058774;28;20045;-67
2022/09/04 07:49:56;;;;;;;4.18;3.78;;;;;;;;;;5075722;28;20103;-70
2022/09/04 07:52:41;;;;;;;6.03;3.47;;;;;;;;;;5072902;28;20090;-70
2022/09/04 07:55:14;;;;;;;4.03;3.40;;;;;;;;;;5065293;28;20565;-70
2022/09/04 07:57:52;;;;;;;6.70;3.30;;;;;;;;;;5061593;28;20111;-69
2022/09/04 08:00:22;;;;;;;5.85;3.67;;;;;;;;;;5071660;28;20028;-70
2022/09/04 08:03:16;;;;;;;5.10;3.30;;;;;;;;;;5065201;28;20453;-70
2022/09/04 08:05:48;;;;;;;4.97;3.75;;;;;;;;;;5064573;28;20463;-68
2022/09/04 08:08:23;;;;;;;5.90;4.00;;;;;;;;;;5055076;28;20491;-71
2022/09/04 08:10:59;;;;;;;5.57;3.60;;;;;;;;;;5062074;28;20045;-70
2022/09/04 08:13:29;;;;;;;5.47;3.63;;;;;;;;;;5056707;28;20086;-69
2022/09/04 08:15:58;;;;;;;5.63;3.30;;;;;;;;;;5057821;28;20491;-70
2022/09/04 08:18:34;;;;;;;7.72;3.42;;;;;;;;;;5061193;28;20021;-69
2022/09/04 08:21:00;;;;;;;3.88;2.83;;;;;;;;;;5066169;28;20025;-70
2022/09/04 08:23:35;;;;;;;5.03;3.35;;;;;;;;;;5065578;28;20022;-70
2022/09/04 08:26:19;;;;;;;11.82;4.10;;;;;;;;;;5061049;28;20387;-70
2022/09/04 08:28:55;;;;;;;5.40;3.13;;;;;;;;;;5058658;28;20437;-69
2022/09/04 08:31:31;;;;;;;6.43;3.40;;;;;;;;;;5069063;28;20143;-69
2022/09/04 08:33:58;;;;;;;4.13;3.65;;;;;;;;;;5066984;28;20063;-70
2022/09/04 08:36:31;;;;;;;6.40;3.40;;;;;;;;;;5064442;28;20055;-70
2022/09/04 08:38:57;;;;;;;5.18;3.17;;;;;;;;;;5056128;28;20029;-70
2022/09/04 08:41:42;;;;;;;8.13;3.83;;;;;;;;;;5056173;28;20025;-69
2022/09/04 08:44:40;;;;;;;8.55;3.50;;;;;;;;;;5065330;28;20084;-69
2022/09/04 08:47:06;;;;;;;5.97;3.60;;;;;;;;;;5026670;28;20036;-68
2022/09/04 08:49:45;;;;;;;4.80;3.50;;;;;;;;;;5070187;28;20024;-70
2022/09/04 08:52:14;;;;;;;4.65;2.90;;;;;;;;;;5069353;28;20112;-67
2022/09/04 08:54:59;;;;;;;7.95;3.55;;;;;;;;;;5060714;28;20494;-70
2022/09/04 08:57:42;;;;;;;5.18;3.15;;;;;;;;;;5058680;28;20221;-69
2022/09/04 09:00:19;;;;;;;5.82;3.10;;;;;;;;;;5067424;28;20031;-69
2022/09/04 09:03:23;;;;;;;8.48;3.10;;;;;;;;;;5065192;28;20498;-69
2022/09/04 09:05:53;;;;;;;4.57;3.00;;;;;;;;;;4966510;28;20026;-68
2022/09/04 09:08:38;;;;;;;3.63;3.20;;;;;;;;;;4970299;28;20105;-69
2022/09/04 09:11:13;;;;;;;4.03;2.70;;;;;;;;;;5027958;28;20029;-70
2022/09/04 09:13:58;;;;;;;5.80;3.03;;;;;;;;;;5065839;28;20016;-70
2022/09/04 09:16:24;;;;;;;7.47;3.55;;;;;;;;;;5050848;28;20025;-70
2022/09/04 09:18:50;;;;;;;3.20;2.83;;;;;;;;;;5053610;28;20078;-69
2022/09/04 09:21:25;;;;;;;4.72;3.00;;;;;;;;;;5066896;28;20025;-70
2022/09/04 09:24:10;;;;;;;4.00;3.42;;;;;;;;;;5066023;28;20012;-68
2022/09/04 09:27:01;;;;;;;3.67;3.05;;;;;;;;;;5064907;28;20016;-70
2022/09/04 09:29:54;;;;;;;8.85;3.80;;;;;;;;;;5062777;28;20039;-68
2022/09/04 09:32:30;;;;;;;3.95;2.80;;;;;;;;;;5066647;28;20020;-69
2022/09/04 09:35:12;;;;;;;4.55;2.78;;;;;;;;;;5077252;22;20045;-72
2022/09/04 09:38:03;;;;;;;3.30;2.55;;;;;;;;;;5047770;28;20025;-72
2022/09/04 09:40:30;;;;;;;4.60;3.13;;;;;;;;;;5050591;28;20029;-72
2022/09/04 09:42:56;;;;;;;3.72;2.70;;;;;;;;;;5051521;28;20162;-72
2022/09/04 09:45:35;;;;;;;4.60;2.83;;;;;;;;;;5041635;28;20024;-72
2022/09/04 09:48:10;;;;;;;5.80;3.05;;;;;;;;;;5033855;28;20091;-72
2022/09/04 09:50:55;;;;;;;3.67;3.17;;;;;;;;;;5043421;28;20033;-72
2022/09/04 09:53:21;;;;;;;3.08;2.58;;;;;;;;;;5044759;28;20086;-72
2022/09/04 09:56:13;;;;;;;5.30;2.45;;;;;;;;;;5041278;28;20499;-72
2022/09/04 09:58:54;;;;;;;4.25;2.90;;;;;;;;;;5031870;28;20064;-73
2022/09/04 10:01:25;;;;;;;3.70;2.72;;;;;;;;;;5046276;28;20075;-73
2022/09/04 10:04:10;;;;;;;3.65;2.75;;;;;;;;;;5045370;28;20028;-72
2022/09/04 10:06:36;;;;;;;5.05;2.65;;;;;;;;;;5039307;28;20416;-72
2022/09/04 10:09:21;;;;;;;6.18;2.53;;;;;;;;;;5032827;28;20060;-72
2022/09/04 10:11:55;;;;;;;5.28;2.60;;;;;;;;;;5048037;28;20021;-72
2022/09/04 10:14:40;;;;;;;6.10;3.35;;;;;;;;;;5041871;28;20361;-72
2022/09/04 10:17:06;;;;;;;4.75;2.70;;;;;;;;;;5036140;28;20546;-72
2022/09/04 10:19:51;;;;;;;5.57;2.90;;;;;;;;;;5036669;28;20483;-73
2022/09/04 10:22:33;;;;;;;4.03;2.97;;;;;;;;;;5046829;28;20036;-72
2022/09/04 10:25:24;;;;;;;5.50;2.80;;;;;;;;;;5038948;28;20030;-73
2022/09/04 10:27:59;;;;;;;4.68;2.80;;;;;;;;;;5032324;28;20052;-72
2022/09/04 10:30:27;;;;;;;4.70;2.72;;;;;;;;;;5042876;28;20476;-72
2022/09/04 10:32:53;;;;;;;7.43;3.13;;;;;;;;;;5042550;28;20059;-71
2022/09/04 10:35:23;;;;;;;5.55;2.50;;;;;;;;;;5040916;28;20084;-72
2022/09/04 10:38:08;;;;;;;4.50;2.70;;;;;;;;;;5034409;28;20048;-72
2022/09/04 10:40:42;;;;;;;6.18;2.75;;;;;;;;;;5043557;28;20041;-73
2022/09/04 10:43:26;;;;;;;4.03;2.67;;;;;;;;;;5042147;28;20025;-71
2022/09/04 10:46:09;;;;;;;3.28;2.50;;;;;;;;;;5038545;28;20063;-72
2022/09/04 10:48:54;;;;;;;5.47;3.00;;;;;;;;;;5032232;28;20170;-74
2022/09/04 10:51:24;;;;;;;3.17;2.45;;;;;;;;;;5046357;28;20502;-72
2022/09/04 10:54:04;;;;;;;7.20;2.63;;;;;;;;;;5043201;28;20392;-73
2022/09/04 10:56:50;;;;;;;4.03;2.97;;;;;;;;;;5035928;28;20024;-72
2022/09/04 10:59:35;;;;;;;6.18;2.50;;;;;;;;;;5024970;28;20041;-72
2022/09/04 11:02:01;;;;;;;4.15;2.75;;;;;;;;;;5047169;28;20031;-72
2022/09/04 11:04:46;;;;;;;4.47;2.65;;;;;;;;;;5040435;28;20022;-72
2022/09/04 11:07:23;;;;;;;3.70;2.90;;;;;;;;;;5036438;28;20135;-72
2022/09/04 11:10:08;;;;;;;4.22;2.67;;;;;;;;;;5036267;28;20475;-73
2022/09/04 11:13:06;;;;;;;6.35;2.72;;;;;;;;;;5044790;28;20044;-73
2022/09/04 11:15:36;;;;;;;3.85;2.40;;;;;;;;;;5027537;28;20052;-73
2022/09/04 11:18:05;;;;;;;5.90;3.10;;;;;;;;;;5036526;28;20035;-73
2022/09/04 11:20:43;;;;;;;5.63;2.50;;;;;;;;;;5046964;28;20030;-72
2022/09/04 11:23:28;;;;;;;3.00;2.55;;;;;;;;;;5045012;28;20018;-71
2022/09/04 11:26:04;;;;;;;3.20;2.67;;;;;;;;;;5043106;28;20426;-72
2022/09/04 11:28:50;;;;;;;6.50;2.38;;;;;;;;;;5034626;28;20043;-72
2022/09/04 11:31:34;;;;;;;3.65;2.75;;;;;;;;;;5049268;28;20013;-72
2022/09/04 11:34:19;;;;;;;3.33;2.05;;;;;;;;;;5047905;28;20029;-71
2022/09/04 11:37:04;;;;;;;4.47;2.60;;;;;;;;;;5038959;28;20122;-73
2022/09/04 11:39:49;;;;;;;4.03;2.10;;;;;;;;;;5038195;28;20114;-75
2022/09/04 11:42:21;;;;;;;4.75;2.65;;;;;;;;;;5050856;28;20021;-76
2022/09/04 11:45:04;;;;;;;3.42;2.15;;;;;;;;;;5065294;22;20044;-76
2022/09/04 11:47:53;;;;;;;3.83;2.42;;;;;;;;;;5068803;28;20046;-76
2022/09/04 11:50:23;;;;;;;5.03;2.72;;;;;;;;;;5074202;28;20032;-74
2022/09/04 11:53:11;;;;;;;2.80;2.60;;;;;;;;;;5071276;28;20027;-72
2022/09/04 11:55:40;;;;;;;5.38;2.22;;;;;;;;;;5059003;28;20761;-73
2022/09/04 11:58:28;;;;;;;4.63;2.63;;;;;;;;;;5074183;22;20052;-68
2022/09/04 12:01:15;;;;;;;3.85;2.58;;;;;;;;;;5048957;28;20025;-69
2022/09/04 12:03:51;;;;;;;3.20;1.98;;;;;;;;;;5053874;28;20031;-70
2022/09/04 12:06:38;;;;;;;3.38;2.15;;;;;;;;;;5045731;28;20432;-71
2022/09/04 12:09:14;;;;;;;3.97;2.35;;;;;;;;;;5037630;28;20030;-70
2022/09/04 12:12:10;;;;;;;4.18;2.28;;;;;;;;;;5040394;28;20029;-69
2022/09/04 12:14:51;;;;;;;2.92;2.45;;;;;;;;;;5032434;28;20036;-69
2022/09/04 12:17:17;;;;;;;;;;;;;;;;;;5033257;28;20044;-69
2022/09/04 12:20:03;;;;;;;5.75;2.47;;;;;;;;;;5033543;28;20075;-69
2022/09/04 12:22:50;;;;;;;5.63;2.67;;;;;;;;;;5031808;28;20029;-70
2022/09/04 12:25:28;;;;;;;2.83;2.58;;;;;;;;;;5033663;28;20042;-67
2022/09/04 12:27:57;;;;;;;4.80;2.47;;;;;;;;;;5032706;28;20091;-69
2022/09/04 12:30:30;;;;;;;7.57;2.30;;;;;;;;;;5033374;28;20099;-72
2022/09/04 12:33:17;;;;;;;5.95;2.60;;;;;;;;;;5033455;28;20051;-68
2022/09/04 12:36:02;;;;;;;4.55;2.72;;;;;;;;;;5033289;28;20037;-72
2022/09/04 12:38:38;;;;;;;7.50;3.00;;;;;;;;;;5032592;28;20033;-70
2022/09/04 12:41:07;;;;;;;3.45;2.40;;;;;;;;;;5033121;28;20068;-69
2022/09/04 12:43:41;;;;;;;3.00;2.42;;;;;;;;;;5031911;28;20025;-68
2022/09/04 12:46:20;;;;;;;7.10;2.80;;;;;;;;;;5032989;28;20071;-70
2022/09/04 12:49:04;;;;;;;5.05;2.85;;;;;;;;;;5032442;28;20079;-70
2022/09/04 12:51:35;;;;;;;4.22;2.72;;;;;;;;;;5019326;28;20181;-71
2022/09/04 12:54:13;;;;;;;4.05;2.75;;;;;;;;;;5033092;28;20108;-70
2022/09/04 12:56:47;;;;;;;3.90;3.15;;;;;;;;;;5032857;28;20411;-70
2022/09/04 12:59:16;;;;;;;3.63;3.03;;;;;;;;;;5031995;28;20018;-69
2022/09/04 13:02:03;;;;;;;5.03;3.08;;;;;;;;;;5032790;28;20026;-70
2022/09/04 13:04:48;;;;;;;7.88;3.40;;;;;;;;;;5032806;28;20410;-70
2022/09/04 13:07:23;;;;;;;6.32;2.92;;;;;;;;;;5025301;28;20028;-69
2022/09/04 13:09:49;;;;;;;3.58;3.10;;;;;;;;;;5020089;28;20018;-70
2022/09/04 13:12:21;;;;;;;3.70;2.70;;;;;;;;;;5038881;28;20119;-70
2022/09/04 13:15:06;;;;;;;6.65;3.53;;;;;;;;;;5019869;28;20357;-70
2022/09/04 13:17:42;;;;;;;3.88;3.17;;;;;;;;;;5031617;28;20025;-69
2022/09/04 13:20:21;;;;;;;4.30;2.85;;;;;;;;;;5032807;28;20018;-70
2022/09/04 13:22:47;;;;;;;5.97;3.47;;;;;;;;;;5032692;28;20013;-69
2022/09/04 13:25:20;;;;;;;5.75;3.20;;;;;;;;;;5032473;28;20029;-69
2022/09/04 13:28:05;;;;;;;7.05;3.38;;;;;;;;;;5031729;28;20013;-71
2022/09/04 13:30:31;;;;;;;5.07;3.30;;;;;;;;;;5031137;28;20116;-69
2022/09/04 13:33:04;;;;;;;5.20;3.25;;;;;;;;;;5032454;28;20030;-70
2022/09/04 13:35:40;;;;;;;4.10;3.03;;;;;;;;;;5031447;28;20160;-71
2022/09/04 13:38:24;;;;;;;4.40;3.00;;;;;;;;;;5018370;28;20026;-70
2022/09/04 13:41:06;;;;;;;5.32;3.10;;;;;;;;;;5046067;28;20064;-69
2022/09/04 13:43:49;;;;;;;4.50;2.80;;;;;;;;;;5032726;28;20101;-71
2022/09/04 13:46:17;;;;;;;5.78;2.75;;;;;;;;;;5031964;28;20475;-68
2022/09/04 13:48:50;;;;;;;5.20;2.83;;;;;;;;;;5028642;28;20487;-69
2022/09/04 13:51:22;;;;;;;3.50;3.13;;;;;;;;;;5031029;28;20021;-67
2022/09/04 13:53:54;;;;;;;4.43;2.90;;;;;;;;;;5031866;28;20053;-69
2022/09/04 13:56:32;;;;;;;3.10;2.47;;;;;;;;;;5031413;28;20155;-71
2022/09/04 13:59:08;;;;;;;3.25;2.47;;;;;;;;;;5030236;28;20017;-67
2022/09/04 14:01:36;;;;;;;5.25;2.90;;;;;;;;;;5030367;28;20013;-70
2022/09/04 14:04:06;;;;;;;4.13;2.88;;;;;;;;;;5030192;28;20563;-70
2022/09/04 14:06:34;;;;;;;3.05;2.60;;;;;;;;;;5029631;28;20029;-70
2022/09/04 14:09:03;;;;;;;5.70;3.00;;;;;;;;;;5026075;28;20025;-70
2022/09/04 14:11:47;;;;;;;4.43;2.40;;;;;;;;;;5032062;28;20028;-69
2022/09/04 14:14:18;;;;;;;3.13;2.72;;;;;;;;;;5031279;28;20033;-70
2022/09/04 14:16:45;;;;;;;4.80;2.97;;;;;;;;;;5031302;28;20375;-70
2022/09/04 14:19:18;;;;;;;3.72;2.58;;;;;;;;;;5029568;28;20033;-71
2022/09/04 14:21:44;;;;;;;4.63;2.55;;;;;;;;;;5030364;28;20018;-70
2022/09/04 14:24:13;;;;;;;4.32;2.83;;;;;;;;;;5030093;28;20045;-68
2022/09/04 14:26:46;;;;;;;5.22;2.95;;;;;;;;;;5029445;28;20013;-71
2022/09/04 14:29:39;;;;;;;4.38;2.70;;;;;;;;;;5028834;28;20033;-69
2022/09/04 14:32:24;;;;;;;3.45;2.45;;;;;;;;;;5026590;28;20125;-70
2022/09/04 14:34:57;;;;;;;4.97;2.83;;;;;;;;;;5016841;28;20052;-70
2022/09/04 14:37:29;;;;;;;4.72;2.55;;;;;;;;;;5028653;28;20060;-72
2022/09/04 14:40:09;;;;;;;3.65;2.40;;;;;;;;;;5031019;28;20354;-69
2022/09/04 14:42:57;;;;;;;6.20;2.60;;;;;;;;;;5030987;28;20021;-71
2022/09/04 14:45:32;;;;;;;3.72;2.53;;;;;;;;;;5029848;28;20029;-70
2022/09/04 14:48:04;;;;;;;4.75;2.78;;;;;;;;;;5028752;28;20028;-70
2022/09/04 14:50:33;;;;;;;7.00;3.03;;;;;;;;;;5031036;28;20033;-71
2022/09/04 14:52:59;;;;;;;3.25;2.95;;;;;;;;;;5030876;28;20040;-70
2022/09/04 14:55:34;;;;;;;2.85;2.60;;;;;;;;;;5030915;28;20029;-70
2022/09/04 14:58:12;;;;;;;3.15;2.33;;;;;;;;;;5029940;28;20037;-71
2022/09/04 15:00:53;;;;;;;4.47;2.85;;;;;;;;;;5030548;28;20021;-70
2022/09/04 15:03:24;;;;;;;5.10;2.97;;;;;;;;;;5021089;28;20045;-69
2022/09/04 15:05:58;;;;;;;3.90;2.92;;;;;;;;;;5031934;28;20390;-70
2022/09/04 15:08:36;;;;;;;5.28;3.42;;;;;;;;;;5028809;28;20100;-71
2022/09/04 15:11:04;;;;;;;3.05;2.53;;;;;;;;;;5029358;28;20026;-70
2022/09/04 15:13:36;;;;;;;5.03;2.88;;;;;;;;;;5031445;28;20434;-70
2022/09/04 15:16:14;;;;;;;5.53;2.70;;;;;;;;;;5027748;28;20060;-69
2022/09/04 15:18:54;;;;;;;4.45;2.65;;;;;;;;;;5029630;28;20033;-71
2022/09/04 15:21:20;;;;;;;4.35;3.15;;;;;;;;;;5032120;28;20013;-70
2022/09/04 15:23:52;;;;;;;6.38;2.67;;;;;;;;;;5035798;28;20032;-68
2022/09/04 15:26:18;;;;;;;3.80;2.78;;;;;;;;;;5037180;28;20026;-71
2022/09/04 15:28:45;;;;;;;4.90;2.72;;;;;;;;;;5035050;28;20028;-69
2022/09/04 15:31:14;;;;;;;4.65;3.50;;;;;;;;;;5030416;28;20087;-68
2022/09/04 15:33:41;;;;;;;4.93;2.92;;;;;;;;;;5030693;28;20049;-70
2022/09/04 15:36:16;;;;;;;5.00;2.85;;;;;;;;;;5030147;28;20017;-69
2022/09/04 15:38:49;;;;;;;4.47;2.97;;;;;;;;;;5030087;28;20022;-69
2022/09/04 15:41:25;;;;;;;3.88;2.50;;;;;;;;;;5029873;28;20097;-69